Time;durP1;ratioP1;P1;durP2;ratioP2;P2;SDS_P1;SDS_P2;PMS_P1;PMS_P2;Temp;Humidity;BMP_temperature;BMP_pressure;BME280_temperature;BME280_humidity;BME280_pressure;Samples;Min_cycle;Max_cycle;Signal;HPM_P1;HPM_P2
2023/12/24 00:02:10;;;;;;;3.60;1.90;;;;;;;6.32;46.41;100139.16;106744;1259;25415;-54
2023/12/24 00:04:37;;;;;;;3.10;1.80;;;;;;;6.30;46.26;100141.77;107102;1256;25363;-54
2023/12/24 00:07:04;;;;;;;3.60;2.00;;;;;;;6.28;46.21;100139.23;106828;1259;25459;-54
2023/12/24 00:09:32;;;;;;;2.50;1.60;;;;;;;6.26;46.20;100147.00;106456;1257;1003306;-54
2023/12/24 00:11:58;;;;;;;3.50;1.60;;;;;;;6.24;46.29;100149.45;106437;1259;1002935;-54
2023/12/24 00:14:25;;;;;;;3.70;1.70;;;;;;;6.23;46.28;100158.41;106838;1260;25346;-55
2023/12/24 00:16:52;;;;;;;2.50;1.90;;;;;;;6.22;46.32;100161.15;106762;1259;25344;-54
2023/12/24 00:19:19;;;;;;;3.20;1.80;;;;;;;6.22;46.34;100155.65;106356;1266;1003507;-54
2023/12/24 00:21:47;;;;;;;2.50;1.80;;;;;;;6.22;46.28;100161.16;106782;1266;25436;-54
2023/12/24 00:24:14;;;;;;;2.10;1.50;;;;;;;6.20;46.32;100161.86;107069;1256;25337;-54
2023/12/24 00:26:40;;;;;;;2.70;1.40;;;;;;;6.19;46.55;100163.27;107099;1264;25325;-54
2023/12/24 00:29:08;;;;;;;2.90;1.70;;;;;;;6.18;46.48;100165.54;106477;1267;23310;-54
2023/12/24 00:31:35;;;;;;;2.70;1.30;;;;;;;6.16;46.42;100166.95;106878;1270;25338;-56
2023/12/24 00:34:02;;;;;;;1.50;1.30;;;;;;;6.13;46.53;100171.27;107025;1256;24649;-54
2023/12/24 00:36:29;;;;;;;2.20;1.60;;;;;;;6.11;46.68;100172.35;107141;1256;25459;-54
2023/12/24 00:38:56;;;;;;;1.50;1.10;;;;;;;6.10;46.95;100176.50;107098;1257;25352;-54
2023/12/24 00:41:23;;;;;;;2.40;1.60;;;;;;;6.09;46.81;100177.36;107203;1257;25555;-54
2023/12/24 00:43:50;;;;;;;2.40;1.50;;;;;;;6.08;47.05;100176.16;106360;1266;1003395;-54
2023/12/24 00:46:17;;;;;;;2.10;1.60;;;;;;;6.09;47.30;100179.09;106320;1257;1003397;-54
2023/12/24 00:48:44;;;;;;;2.50;1.30;;;;;;;6.11;47.20;100179.23;107090;1257;25475;-54
2023/12/24 00:51:12;;;;;;;2.70;1.90;;;;;;;6.13;47.27;100179.90;107153;1267;25455;-54
2023/12/24 00:53:38;;;;;;;2.40;1.50;;;;;;;6.15;47.24;100176.26;107000;1251;22550;-53
2023/12/24 00:56:06;;;;;;;2.20;1.40;;;;;;;6.16;47.21;100171.77;106824;1266;25356;-53
2023/12/24 00:58:33;;;;;;;3.20;1.50;;;;;;;6.18;47.07;100176.73;105835;1266;1003337;-53
2023/12/24 01:01:01;;;;;;;2.30;1.70;;;;;;;6.19;47.12;100179.64;106785;1260;25350;-53
2023/12/24 01:03:28;;;;;;;2.50;1.50;;;;;;;6.20;47.18;100183.09;106157;1269;1003568;-53
2023/12/24 01:05:55;;;;;;;1.80;1.30;;;;;;;6.21;47.11;100182.37;106788;1259;25321;-53
2023/12/24 01:08:22;;;;;;;2.90;1.80;;;;;;;6.23;47.02;100182.68;106124;1259;1002987;-53
2023/12/24 01:10:49;;;;;;;2.50;1.60;;;;;;;6.24;46.92;100184.58;106737;1264;25321;-53
2023/12/24 01:13:20;;;;;;;1.80;1.30;;;;;;;6.23;46.98;100190.78;106736;1259;25586;-53
2023/12/24 01:15:48;;;;;;;2.60;1.90;;;;;;;6.21;46.87;100189.25;105966;1260;1003618;-53
2023/12/24 01:18:15;;;;;;;3.70;1.90;;;;;;;6.18;46.94;100193.08;106756;1270;22527;-54
2023/12/24 01:20:42;;;;;;;1.90;1.40;;;;;;;6.15;47.05;100192.78;106070;1259;1003229;-53
2023/12/24 01:23:09;;;;;;;3.20;1.70;;;;;;;6.12;47.04;100201.77;106679;1269;25334;-53
2023/12/24 01:25:36;;;;;;;2.90;1.90;;;;;;;6.09;47.19;100198.55;106104;1269;1003555;-53
2023/12/24 01:28:04;;;;;;;2.60;1.80;;;;;;;6.07;47.30;100211.65;106748;1265;25387;-53
2023/12/24 01:30:31;;;;;;;2.00;1.60;;;;;;;6.06;47.46;100219.07;107059;1260;25481;-53
2023/12/24 01:32:58;;;;;;;3.00;2.00;;;;;;;6.07;47.40;100220.79;107066;1267;25340;-53
2023/12/24 01:35:26;;;;;;;3.00;1.80;;;;;;;6.07;47.45;100221.98;106842;1269;25474;-53
2023/12/24 01:37:54;;;;;;;2.10;1.40;;;;;;;6.06;47.48;100214.93;106967;1266;25338;-53
2023/12/24 01:40:21;;;;;;;2.60;1.80;;;;;;;6.06;47.57;100220.45;106450;1271;1002499;-53
2023/12/24 01:42:48;;;;;;;3.20;1.90;;;;;;;6.08;47.72;100219.05;107080;1264;22771;-53
2023/12/24 01:45:15;;;;;;;2.60;1.50;;;;;;;6.09;47.40;100215.42;107117;1263;25504;-54
2023/12/24 01:47:42;;;;;;;2.70;1.90;;;;;;;6.10;47.37;100223.34;106897;1268;22553;-53
2023/12/24 01:50:09;;;;;;;3.70;2.10;;;;;;;6.12;47.32;100238.48;107065;1266;25328;-53
2023/12/24 01:52:37;;;;;;;3.20;2.10;;;;;;;6.14;47.29;100241.36;105984;1270;1003696;-53
2023/12/24 01:55:04;;;;;;;3.50;2.10;;;;;;;6.15;47.26;100231.87;106826;1265;25377;-53
2023/12/24 01:57:31;;;;;;;3.20;1.70;;;;;;;6.16;47.10;100226.67;106102;1259;1003696;-53
2023/12/24 01:59:58;;;;;;;3.70;1.80;;;;;;;6.16;47.18;100221.52;107037;1263;23440;-53
2023/12/24 02:02:26;;;;;;;2.80;2.10;;;;;;;6.16;47.06;100223.08;106832;1267;24365;-54
2023/12/24 02:04:53;;;;;;;3.40;1.80;;;;;;;6.16;46.97;100225.48;106393;1265;1002828;-53
2023/12/24 02:07:20;;;;;;;2.70;1.90;;;;;;;6.15;47.05;100228.95;106860;1267;305347;-53
2023/12/24 02:09:47;;;;;;;2.60;1.80;;;;;;;6.14;46.89;100233.42;106838;1269;25353;-53
2023/12/24 02:12:14;;;;;;;2.00;1.70;;;;;;;6.14;46.79;100240.67;107130;1266;25484;-53
2023/12/24 02:14:42;;;;;;;1.90;1.40;;;;;;;6.14;46.84;100242.05;106798;1260;25337;-53
2023/12/24 02:17:09;;;;;;;2.40;1.80;;;;;;;6.13;46.79;100238.62;106831;1272;25347;-53
2023/12/24 02:19:36;;;;;;;3.30;2.00;;;;;;;6.13;46.83;100239.98;106979;1266;25377;-53
2023/12/24 02:22:03;;;;;;;3.20;1.70;;;;;;;6.14;46.72;100238.96;107034;1256;22991;-53
2023/12/24 02:24:30;;;;;;;2.80;1.90;;;;;;;6.15;46.54;100242.90;106173;1260;1003810;-53
2023/12/24 02:27:03;;;;;;;3.60;2.30;;;;;;;6.14;46.42;100241.70;107344;1266;25328;-53
2023/12/24 02:29:32;;;;;;;3.00;2.00;;;;;;;6.13;46.44;100242.23;106357;1259;1002962;-53
2023/12/24 02:32:13;;;;;;;2.40;1.90;;;;;;;6.11;46.12;100246.55;107057;1263;25328;-53
2023/12/24 02:34:42;;;;;;;;;;;;;;;6.09;46.14;100249.86;106828;1273;25210;-53
2023/12/24 02:37:09;;;;;;;2.90;1.90;;;;;;;6.05;46.34;100251.11;107069;1264;25362;-53
2023/12/24 02:39:38;;;;;;;4.00;2.20;;;;;;;6.02;46.22;100251.84;107005;1257;25411;-53
2023/12/24 02:42:06;;;;;;;3.60;2.20;;;;;;;5.98;46.47;100258.42;106356;1268;1003055;-53
2023/12/24 02:44:35;;;;;;;3.80;2.30;;;;;;;5.97;46.34;100261.36;106898;1260;24377;-53
2023/12/24 02:47:02;;;;;;;2.30;2.00;;;;;;;5.96;46.40;100269.45;106951;1257;22532;-53
2023/12/24 02:49:29;;;;;;;3.80;2.00;;;;;;;5.95;46.45;100271.37;107031;1258;22555;-53
2023/12/24 02:51:56;;;;;;;3.30;2.30;;;;;;;5.94;46.52;100274.30;106866;1261;25398;-53
2023/12/24 02:54:23;;;;;;;3.30;2.50;;;;;;;5.93;46.55;100275.86;106025;1261;1003627;-53
2023/12/24 02:56:50;;;;;;;4.00;2.40;;;;;;;5.92;46.48;100279.66;106319;1256;1002966;-53
2023/12/24 02:59:17;;;;;;;3.40;2.10;;;;;;;5.91;46.53;100287.44;106997;1263;24405;-54
2023/12/24 03:01:45;;;;;;;3.50;2.50;;;;;;;5.89;46.49;100290.55;107234;1265;25379;-53
2023/12/24 03:04:12;;;;;;;2.70;2.20;;;;;;;5.86;46.71;100291.94;107099;1267;25312;-53
2023/12/24 03:06:39;;;;;;;3.10;2.50;;;;;;;5.83;46.63;100290.76;106394;1264;1003795;-53
2023/12/24 03:09:06;;;;;;;6.00;2.40;;;;;;;5.81;46.66;100292.83;106329;1264;1003323;-53
2023/12/24 03:11:33;;;;;;;3.90;2.30;;;;;;;5.77;46.68;100294.75;107153;1257;25346;-53
2023/12/24 03:14:00;;;;;;;5.00;2.40;;;;;;;5.74;46.64;100297.88;106103;1257;1003233;-53
2023/12/24 03:16:27;;;;;;;3.90;2.30;;;;;;;5.72;46.59;100299.45;106359;1263;1002398;-53
2023/12/24 03:18:54;;;;;;;3.30;2.40;;;;;;;5.70;46.67;100307.05;106374;1263;1003002;-53
2023/12/24 03:21:21;;;;;;;3.60;2.20;;;;;;;5.68;46.55;100309.64;107223;1254;25356;-53
2023/12/24 03:23:48;;;;;;;2.60;2.20;;;;;;;5.66;46.62;100309.66;107051;1257;25465;-53
2023/12/24 03:26:22;;;;;;;3.70;2.70;;;;;;;5.66;46.68;100318.09;106748;1267;25386;-54
2023/12/24 03:28:49;;;;;;;3.10;2.20;;;;;;;5.65;46.42;100322.91;106739;1271;25346;-53
2023/12/24 03:31:16;;;;;;;3.40;2.30;;;;;;;5.65;46.30;100328.42;106898;1260;25408;-53
2023/12/24 03:33:44;;;;;;;2.30;2.10;;;;;;;5.64;46.43;100331.88;106908;1273;25328;-53
2023/12/24 03:36:12;;;;;;;4.70;2.50;;;;;;;5.64;46.35;100331.19;106833;1257;25487;-53
2023/12/24 03:38:40;;;;;;;5.00;2.60;;;;;;;5.62;46.31;100337.74;106800;1263;25436;-53
2023/12/24 03:41:07;;;;;;;7.30;2.50;;;;;;;5.60;46.22;100342.58;105949;1270;1002979;-53
2023/12/24 03:43:34;;;;;;;3.00;2.60;;;;;;;5.58;46.19;100340.70;106050;1269;1003387;-53
2023/12/24 03:46:03;;;;;;;5.90;2.80;;;;;;;5.54;46.02;100339.35;106719;1267;24288;-53
2023/12/24 03:48:31;;;;;;;3.60;2.70;;;;;;;5.50;46.19;100341.45;106389;1267;25431;-53
2023/12/24 03:50:58;;;;;;;3.70;2.50;;;;;;;5.45;46.20;100343.39;106755;1258;24237;-54
2023/12/24 03:53:25;;;;;;;4.20;2.10;;;;;;;5.42;46.38;100351.33;106714;1273;22539;-53
2023/12/24 03:55:53;;;;;;;3.40;2.70;;;;;;;5.39;46.38;100352.04;106723;1273;23883;-53
2023/12/24 03:58:20;;;;;;;4.40;2.50;;;;;;;5.37;46.39;100354.79;105892;1267;1002841;-53
2023/12/24 04:00:47;;;;;;;5.50;2.60;;;;;;;5.36;46.41;100360.30;107027;1260;25491;-53
2023/12/24 04:03:14;;;;;;;5.00;2.30;;;;;;;5.35;46.39;100362.20;106738;1273;25362;-53
2023/12/24 04:05:41;;;;;;;3.00;2.40;;;;;;;5.35;46.37;100362.36;106110;1259;1003337;-53
2023/12/24 04:08:09;;;;;;;3.60;2.50;;;;;;;5.37;46.29;100367.87;105861;1274;1002978;-53
2023/12/24 04:10:39;;;;;;;3.50;2.10;;;;;;;5.39;46.13;100369.58;106862;1264;25476;-53
2023/12/24 04:13:09;;;;;;;3.70;2.70;;;;;;;5.40;46.11;100371.80;107036;1266;22534;-53
2023/12/24 04:15:36;;;;;;;2.80;2.40;;;;;;;5.40;46.12;100377.31;107180;1257;22524;-54
2023/12/24 04:18:04;;;;;;;3.30;2.40;;;;;;;5.40;46.00;100381.45;106801;1259;23135;-53
2023/12/24 04:20:31;;;;;;;7.30;2.50;;;;;;;5.38;45.90;100389.02;107136;1257;24199;-53
2023/12/24 04:22:58;;;;;;;3.40;2.50;;;;;;;5.34;45.91;100385.26;107061;1257;25332;-53
2023/12/24 04:25:25;;;;;;;4.00;2.70;;;;;;;5.32;45.76;100391.12;106255;1257;1003248;-54
2023/12/24 04:27:52;;;;;;;3.80;2.40;;;;;;;5.29;45.85;100401.63;106911;1267;25319;-53
2023/12/24 04:30:19;;;;;;;3.80;2.50;;;;;;;5.26;45.78;100400.95;106911;1260;24383;-54
2023/12/24 04:32:47;;;;;;;3.50;2.50;;;;;;;5.25;45.80;100404.75;106401;1267;1003437;-53
2023/12/24 04:35:14;;;;;;;4.30;2.70;;;;;;;5.25;45.82;100399.94;106277;1254;1002905;-54
2023/12/24 04:37:41;;;;;;;4.60;2.60;;;;;;;5.25;45.79;100395.13;106343;1256;1002901;-55
2023/12/24 04:40:09;;;;;;;3.90;2.40;;;;;;;5.25;45.68;100399.23;106988;1257;25357;-54
2023/12/24 04:42:36;;;;;;;4.40;2.80;;;;;;;5.27;45.67;100408.86;107135;1257;22537;-55
2023/12/24 04:45:04;;;;;;;3.50;2.90;;;;;;;5.28;45.58;100409.02;106411;1261;1002917;-54
2023/12/24 04:47:31;;;;;;;3.60;2.50;;;;;;;5.29;45.51;100409.88;106911;1256;22519;-55
2023/12/24 04:49:59;;;;;;;2.90;2.40;;;;;;;5.28;45.45;100412.63;106890;1261;25356;-54
2023/12/24 04:52:26;;;;;;;3.80;2.70;;;;;;;5.27;45.33;100419.34;106899;1273;25400;-54
2023/12/24 04:54:53;;;;;;;3.80;2.50;;;;;;;5.26;45.15;100426.92;106327;1254;1003286;-55
2023/12/24 04:57:20;;;;;;;3.90;2.30;;;;;;;5.13;45.28;100430.96;106136;1260;1003811;-55
2023/12/24 04:59:47;;;;;;;3.30;2.10;;;;;;;4.98;45.63;100431.88;106951;1258;25353;-55
2023/12/24 05:02:14;;;;;;;3.20;2.50;;;;;;;4.93;45.79;100439.63;106752;1260;25474;-55
2023/12/24 05:04:43;;;;;;;3.60;2.80;;;;;;;4.89;45.77;100449.45;106062;1260;1005627;-54
2023/12/24 05:07:10;;;;;;;3.10;2.30;;;;;;;4.87;45.90;100452.37;107091;1258;25337;-52
2023/12/24 05:09:39;;;;;;;3.60;2.70;;;;;;;4.85;45.89;100455.98;107102;1257;25353;-54
2023/12/24 05:12:11;;;;;;;2.90;2.30;;;;;;;4.83;45.80;100462.70;107127;1254;22586;-54
2023/12/24 05:14:38;;;;;;;2.90;2.20;;;;;;;4.82;45.91;100460.98;107214;1254;25475;-53
2023/12/24 05:17:05;;;;;;;3.20;2.30;;;;;;;4.81;45.78;100467.52;107085;1257;25389;-54
2023/12/24 05:19:33;;;;;;;3.30;2.10;;;;;;;4.85;45.62;100469.73;106069;1270;1003716;-54
2023/12/24 05:22:00;;;;;;;3.60;2.20;;;;;;;5.04;45.05;100473.63;106320;1258;1002966;-55
2023/12/24 05:24:27;;;;;;;3.30;2.20;;;;;;;5.06;44.92;100478.94;106371;1260;1003514;-54
2023/12/24 05:26:54;;;;;;;7.30;2.30;;;;;;;5.06;44.80;100482.90;107142;1258;25405;-54
2023/12/24 05:29:21;;;;;;;3.00;2.20;;;;;;;5.06;44.70;100482.20;107223;1260;25344;-54
2023/12/24 05:31:49;;;;;;;3.20;2.20;;;;;;;5.07;44.86;100478.09;107128;1257;23279;-55
2023/12/24 05:34:16;;;;;;;3.70;2.10;;;;;;;5.06;44.67;100480.31;107028;1258;25328;-53
2023/12/24 05:36:43;;;;;;;3.20;2.30;;;;;;;5.05;44.67;100486.70;106450;1257;1003029;-54
2023/12/24 05:39:11;;;;;;;2.30;2.00;;;;;;;5.04;44.74;100488.77;106357;1257;1003706;-54
2023/12/24 05:41:38;;;;;;;3.20;2.10;;;;;;;5.04;44.77;100499.41;106408;1261;1003928;-54
2023/12/24 05:44:05;;;;;;;2.60;1.80;;;;;;;5.04;44.93;100506.11;107194;1257;25392;-54
2023/12/24 05:46:32;;;;;;;2.60;2.30;;;;;;;5.04;44.82;100509.03;107180;1257;25316;-54
2023/12/24 05:48:59;;;;;;;4.00;2.30;;;;;;;5.06;44.86;100514.70;107259;1254;25405;-54
2023/12/24 05:51:26;;;;;;;2.90;2.00;;;;;;;5.07;44.64;100514.70;106448;1251;1002783;-54
2023/12/24 05:53:53;;;;;;;3.60;1.90;;;;;;;5.08;44.64;100515.90;107063;1257;25395;-54
2023/12/24 05:56:20;;;;;;;3.00;2.10;;;;;;;5.10;44.70;100523.98;107153;1264;25335;-54
2023/12/24 05:58:47;;;;;;;2.50;1.90;;;;;;;5.10;44.53;100525.35;106475;1257;1002398;-54
2023/12/24 06:01:14;;;;;;;2.10;1.80;;;;;;;5.09;44.42;100531.88;107077;1253;25428;-54
2023/12/24 06:03:42;;;;;;;3.60;2.10;;;;;;;5.09;44.51;100536.20;106827;1267;25519;-54
2023/12/24 06:06:09;;;;;;;2.90;1.90;;;;;;;5.07;44.54;100547.54;107081;1257;25456;-54
2023/12/24 06:08:38;;;;;;;3.40;2.10;;;;;;;5.05;44.57;100547.55;107140;1260;25415;-54
2023/12/24 06:11:05;;;;;;;2.90;1.90;;;;;;;5.04;44.59;100555.97;107152;1258;25329;-54
2023/12/24 06:13:32;;;;;;;3.90;2.20;;;;;;;5.04;44.71;100555.63;107088;1255;22542;-54
2023/12/24 06:15:59;;;;;;;2.40;1.60;;;;;;;5.04;44.66;100557.69;106382;1257;1002651;-54
2023/12/24 06:18:26;;;;;;;2.30;1.80;;;;;;;5.07;44.62;100563.88;106403;1257;1003043;-55
2023/12/24 06:20:53;;;;;;;2.50;2.10;;;;;;;5.09;44.55;100572.47;107075;1256;25484;-53
2023/12/24 06:23:20;;;;;;;1.80;1.60;;;;;;;5.13;44.51;100572.45;106289;1257;1003134;-54
2023/12/24 06:25:48;;;;;;;3.00;1.90;;;;;;;5.17;44.45;100574.68;107052;1254;25411;-54
2023/12/24 06:28:15;;;;;;;1.90;1.70;;;;;;;5.19;44.46;100575.53;106934;1270;25330;-54
2023/12/24 06:30:42;;;;;;;2.10;1.80;;;;;;;5.22;44.45;100580.00;106236;1269;1003029;-54
2023/12/24 06:33:09;;;;;;;1.90;1.70;;;;;;;5.22;44.48;100584.46;107159;1256;25478;-54
2023/12/24 06:35:36;;;;;;;1.60;1.50;;;;;;;5.24;44.33;100588.93;107159;1257;25338;-54
2023/12/24 06:38:03;;;;;;;2.90;1.80;;;;;;;5.25;44.53;100585.83;106986;1257;25487;-53
2023/12/24 06:40:30;;;;;;;3.30;2.00;;;;;;;5.26;44.43;100591.67;107057;1255;25347;-54
2023/12/24 06:42:57;;;;;;;3.20;1.90;;;;;;;5.28;44.66;100599.92;106441;1251;1002940;-54
2023/12/24 06:45:24;;;;;;;2.20;1.90;;;;;;;5.30;44.55;100600.09;107076;1257;25478;-54
2023/12/24 06:47:51;;;;;;;6.70;1.60;;;;;;;5.34;44.62;100602.30;107116;1257;25375;-54
2023/12/24 06:50:20;;;;;;;1.50;1.40;;;;;;;5.38;44.50;100607.30;106456;1257;1003446;-54
2023/12/24 06:52:47;;;;;;;2.20;1.50;;;;;;;5.43;44.52;100608.30;107116;1254;25340;-54
2023/12/24 06:55:14;;;;;;;3.10;1.50;;;;;;;5.48;44.26;100608.45;106399;1257;1002448;-54
2023/12/24 06:57:41;;;;;;;2.10;1.40;;;;;;;5.53;44.19;100611.18;106224;1261;1002913;-54
2023/12/24 07:00:09;;;;;;;1.90;1.40;;;;;;;5.58;44.29;100614.79;107097;1255;25350;-54
2023/12/24 07:02:36;;;;;;;2.10;1.50;;;;;;;5.62;44.08;100616.84;105964;1262;1003317;-54
2023/12/24 07:05:03;;;;;;;2.10;1.50;;;;;;;5.63;44.13;100623.04;107098;1257;25379;-54
2023/12/24 07:07:31;;;;;;;2.60;1.70;;;;;;;5.65;44.09;100629.73;106864;1256;25260;-54
2023/12/24 07:09:58;;;;;;;2.40;1.60;;;;;;;5.68;44.14;100629.38;106093;1261;1003712;-54
2023/12/24 07:12:30;;;;;;;2.70;1.80;;;;;;;5.70;44.18;100633.84;107168;1253;25394;-54
2023/12/24 07:14:56;;;;;;;2.40;1.40;;;;;;;5.72;44.01;100633.48;106849;1266;25413;-54
2023/12/24 07:17:23;;;;;;;2.70;1.70;;;;;;;5.75;44.09;100636.23;106811;1267;25381;-54
2023/12/24 07:19:51;;;;;;;1.90;1.40;;;;;;;5.78;44.09;100641.55;106038;1257;1003815;-54
2023/12/24 07:22:18;;;;;;;1.80;1.20;;;;;;;5.83;44.04;100643.45;106836;1267;25347;-54
2023/12/24 07:24:46;;;;;;;1.80;1.60;;;;;;;5.87;44.23;100646.55;107097;1257;25385;-54
2023/12/24 07:27:13;;;;;;;1.60;1.50;;;;;;;5.92;43.93;100645.84;106619;1267;25372;-54
2023/12/24 07:29:41;;;;;;;2.20;1.40;;;;;;;5.98;43.84;100649.59;106426;1256;1003324;-54
2023/12/24 07:32:08;;;;;;;2.00;1.40;;;;;;;6.06;43.94;100651.62;107136;1251;24205;-54
2023/12/24 07:34:35;;;;;;;2.70;1.80;;;;;;;6.13;43.94;100652.80;106359;1257;1003013;-54
2023/12/24 07:37:02;;;;;;;2.50;2.00;;;;;;;6.19;43.90;100653.60;106374;1256;1003135;-54
2023/12/24 07:39:29;;;;;;;2.80;1.70;;;;;;;6.25;43.90;100653.92;106863;1267;25338;-54
2023/12/24 07:41:56;;;;;;;2.10;1.60;;;;;;;6.30;43.85;100653.89;106937;1264;25232;-54
2023/12/24 07:44:23;;;;;;;2.50;1.50;;;;;;;6.36;43.89;100652.14;106056;1256;1003067;-54
2023/12/24 07:46:52;;;;;;;2.50;1.60;;;;;;;6.40;43.85;100646.94;106772;1272;25349;-54
2023/12/24 07:49:19;;;;;;;3.30;1.60;;;;;;;6.45;43.85;100650.52;107019;1256;25366;-54
2023/12/24 07:51:47;;;;;;;3.80;1.40;;;;;;;6.49;43.83;100646.69;107074;1257;25414;-54
2023/12/24 07:54:14;;;;;;;2.10;1.40;;;;;;;6.54;43.98;100654.08;107166;1257;25379;-54
2023/12/24 07:56:41;;;;;;;2.20;1.50;;;;;;;6.60;43.64;100657.48;107049;1254;25398;-53
2023/12/24 07:59:08;;;;;;;1.90;1.40;;;;;;;6.66;43.72;100660.89;107026;1252;25293;-54
2023/12/24 08:01:37;;;;;;;2.60;1.50;;;;;;;6.73;43.74;100666.18;106857;1270;25402;-54
2023/12/24 08:04:04;;;;;;;1.40;1.30;;;;;;;6.81;43.61;100668.36;106896;1257;22901;-54
2023/12/24 08:06:31;;;;;;;2.40;1.70;;;;;;;6.89;43.72;100679.16;106308;1251;1003551;-54
2023/12/24 08:08:59;;;;;;;2.00;1.40;;;;;;;6.98;43.59;100683.05;107179;1257;25513;-54
2023/12/24 08:11:25;;;;;;;6.40;1.50;;;;;;;7.04;43.17;100684.38;107158;1251;25477;-54
2023/12/24 08:13:54;;;;;;;1.30;1.20;;;;;;;7.10;43.21;100682.42;107111;1256;25347;-54
2023/12/24 08:16:21;;;;;;;1.50;1.30;;;;;;;7.15;42.95;100683.61;107135;1253;23394;-54
2023/12/24 08:18:48;;;;;;;1.70;1.60;;;;;;;7.20;42.67;100687.86;106989;1263;25516;-54
2023/12/24 08:21:15;;;;;;;1.00;0.90;;;;;;;7.24;42.77;100694.21;107380;1250;24326;-55
2023/12/24 08:23:42;;;;;;;1.40;1.30;;;;;;;7.27;42.67;100692.45;106641;1257;1003190;-55
2023/12/24 08:26:08;;;;;;;1.70;1.30;;;;;;;7.29;42.59;100693.80;106479;1253;1003418;-54
2023/12/24 08:28:35;;;;;;;1.20;1.10;;;;;;;7.33;42.60;100697.58;107690;1254;25468;-54
2023/12/24 08:31:02;;;;;;;1.80;1.20;;;;;;;7.36;42.46;100711.69;107093;1254;25375;-54
2023/12/24 08:33:29;;;;;;;1.60;1.20;;;;;;;7.39;42.62;100713.90;106970;1260;25375;-54
2023/12/24 08:35:56;;;;;;;1.50;1.20;;;;;;;7.44;42.58;100714.89;106643;1255;1003614;-54
2023/12/24 08:38:24;;;;;;;2.70;1.30;;;;;;;7.50;42.54;100713.11;107249;1254;25370;-54
2023/12/24 08:40:51;;;;;;;1.10;1.00;;;;;;;7.56;42.46;100713.05;106942;1256;25590;-54
2023/12/24 08:43:18;;;;;;;1.20;1.10;;;;;;;7.63;42.47;100714.01;107184;1257;25381;-55
2023/12/24 08:45:45;;;;;;;1.00;0.90;;;;;;;7.69;42.38;100717.57;106908;1256;25402;-55
2023/12/24 08:48:12;;;;;;;1.90;1.50;;;;;;;7.76;42.28;100717.15;107106;1260;25542;-55
2023/12/24 08:50:39;;;;;;;1.40;1.10;;;;;;;7.81;41.98;100720.02;106454;1253;1003314;-53
2023/12/24 08:53:06;;;;;;;1.30;1.00;;;;;;;7.85;41.95;100719.80;106952;1271;25411;-53
2023/12/24 08:55:33;;;;;;;3.20;1.40;;;;;;;7.91;41.95;100721.98;107214;1264;24229;-52
2023/12/24 08:58:00;;;;;;;1.40;0.90;;;;;;;7.97;41.76;100719.85;106978;1256;25411;-53
2023/12/24 09:00:27;;;;;;;2.30;1.20;;;;;;;8.02;41.72;100716.84;106452;1260;1002840;-53
2023/12/24 09:02:55;;;;;;;1.10;0.90;;;;;;;8.08;41.73;100714.52;107593;1254;25356;-54
2023/12/24 09:05:22;;;;;;;1.60;1.20;;;;;;;8.14;41.53;100717.55;106857;1263;24193;-53
2023/12/24 09:07:49;;;;;;;1.20;1.00;;;;;;;8.21;41.63;100714.36;106939;1264;25401;-53
2023/12/24 09:10:17;;;;;;;2.50;1.10;;;;;;;8.29;41.79;100715.69;107004;1267;25337;-53
2023/12/24 09:12:44;;;;;;;1.60;1.10;;;;;;;8.35;41.62;100717.15;106924;1266;25353;-53
2023/12/24 09:15:11;;;;;;;1.30;1.20;;;;;;;8.42;41.44;100719.14;107209;1251;24345;-53
2023/12/24 09:17:38;;;;;;;1.00;0.90;;;;;;;8.49;41.29;100718.70;107130;1254;25372;-53
2023/12/24 09:20:06;;;;;;;1.80;0.80;;;;;;;8.55;41.15;100721.71;107228;1251;25395;-53
2023/12/24 09:22:33;;;;;;;1.40;1.10;;;;;;;8.62;41.07;100721.45;106823;1267;23214;-53
2023/12/24 09:25:00;;;;;;;2.10;1.00;;;;;;;8.66;40.77;100718.61;107301;1253;25340;-53
2023/12/24 09:27:27;;;;;;;2.70;1.10;;;;;;;8.71;40.71;100720.27;107142;1254;25350;-53
2023/12/24 09:29:55;;;;;;;1.30;1.00;;;;;;;8.76;40.58;100719.86;107606;1256;24047;-54
2023/12/24 09:32:21;;;;;;;0.80;0.80;;;;;;;8.80;40.47;100719.45;107392;1255;24238;-53
2023/12/24 09:34:48;;;;;;;1.20;1.10;;;;;;;8.84;40.54;100716.44;107166;1257;25372;-53
2023/12/24 09:37:15;;;;;;;1.50;1.00;;;;;;;8.89;40.49;100715.49;107147;1259;24309;-53
2023/12/24 09:39:43;;;;;;;1.00;0.90;;;;;;;8.95;40.45;100709.00;107230;1254;23305;-54
2023/12/24 09:42:10;;;;;;;1.10;0.80;;;;;;;8.99;40.35;100702.20;106998;1257;25414;-53
2023/12/24 09:44:37;;;;;;;0.90;0.70;;;;;;;9.04;40.48;100702.63;107181;1256;25383;-53
2023/12/24 09:47:04;;;;;;;2.10;1.00;;;;;;;9.10;40.60;100703.74;107231;1257;25337;-53
2023/12/24 09:49:31;;;;;;;0.90;0.80;;;;;;;9.16;40.57;100706.91;107087;1256;25366;-54
2023/12/24 09:51:59;;;;;;;0.80;0.80;;;;;;;9.23;40.62;100706.29;107138;1263;25420;-53
2023/12/24 09:54:26;;;;;;;0.80;0.80;;;;;;;9.32;40.20;100706.66;107210;1256;22527;-53
2023/12/24 09:56:54;;;;;;;0.60;0.60;;;;;;;9.43;39.88;100703.70;107338;1252;25379;-55
2023/12/24 09:59:21;;;;;;;1.10;0.70;;;;;;;9.53;39.33;100705.73;107295;1253;22596;-52
2023/12/24 10:01:48;;;;;;;1.20;0.80;;;;;;;9.61;39.16;100703.35;107203;1253;23900;-52
2023/12/24 10:04:15;;;;;;;1.30;0.90;;;;;;;9.67;39.11;100704.96;107177;1257;25414;-53
2023/12/24 10:06:56;;;;;;;1.20;0.90;;;;;;;9.75;38.79;100698.08;106264;1257;1002750;-53
2023/12/24 10:09:24;;;;;;;3.10;1.20;;;;;;;9.83;38.50;100697.55;106560;1261;1003021;-53
2023/12/24 10:12:08;;;;;;;1.00;0.70;;;;;;;9.89;38.32;100692.08;106755;1256;1003725;-53
2023/12/24 10:14:36;;;;;;;0.90;0.70;;;;;;;9.94;38.09;100692.16;107294;1267;22358;-54
2023/12/24 10:17:05;;;;;;;1.50;0.90;;;;;;;9.99;38.01;100691.88;107112;1257;22523;-54
2023/12/24 10:19:32;;;;;;;0.80;0.60;;;;;;;10.03;38.09;100692.83;107312;1261;25324;-54
2023/12/24 10:22:04;;;;;;;1.30;0.60;;;;;;;10.09;37.87;100690.12;107228;1264;25337;-54
2023/12/24 10:24:32;;;;;;;;;;;;;;;10.15;37.58;100683.93;106286;1266;1014889;-53
2023/12/24 10:27:08;;;;;;;0.90;0.60;;;;;;;10.22;37.26;100681.55;107200;1256;25492;-54
2023/12/24 10:29:39;;;;;;;0.50;0.50;;;;;;;10.27;37.20;100686.30;106967;1271;22519;-53
2023/12/24 10:32:10;;;;;;;1.30;0.70;;;;;;;10.34;37.13;100689.44;107231;1254;24186;-54
2023/12/24 10:34:37;;;;;;;1.00;0.80;;;;;;;10.39;37.10;100693.29;107438;1250;22538;-54
2023/12/24 10:37:18;;;;;;;0.60;0.60;;;;;;;10.44;36.20;100696.48;107231;1259;25424;-54
2023/12/24 10:39:46;;;;;;;1.20;0.70;;;;;;;10.46;35.40;100696.09;106472;1256;1003070;-54
2023/12/24 10:42:14;;;;;;;1.90;0.80;;;;;;;10.47;35.03;100694.67;107106;1257;25345;-53
2023/12/24 10:44:41;;;;;;;1.10;0.90;;;;;;;10.48;34.63;100689.11;106460;1256;1002871;-54
2023/12/24 10:47:08;;;;;;;1.30;0.70;;;;;;;10.48;34.54;100687.72;107386;1253;23229;-54
2023/12/24 10:49:35;;;;;;;1.30;0.80;;;;;;;10.50;34.65;100687.48;106342;1254;1003366;-53
2023/12/24 10:52:03;;;;;;;0.90;0.90;;;;;;;10.52;34.81;100695.77;107174;1256;23861;-53
2023/12/24 10:54:30;;;;;;;1.90;0.90;;;;;;;10.55;34.77;100692.09;106174;1267;1003795;-52
2023/12/24 10:57:05;;;;;;;2.60;1.30;;;;;;;10.56;34.88;100693.08;106958;1259;25394;-54
2023/12/24 11:00:24;;;;;;;2.30;1.20;;;;;;;10.59;34.56;100697.17;106411;1257;1015523;-55
2023/12/24 11:02:52;;;;;;;1.30;0.90;;;;;;;10.64;34.01;100695.69;107131;1257;25411;-53
2023/12/24 11:05:39;;;;;;;1.80;1.10;;;;;;;10.67;33.45;100688.49;107291;1254;22540;-53
2023/12/24 11:08:19;;;;;;;1.70;1.10;;;;;;;10.70;33.21;100690.85;107132;1251;25226;-53
2023/12/24 11:11:03;;;;;;;0.90;0.80;;;;;;;10.71;33.21;100690.14;107117;1257;25353;-53
2023/12/24 11:13:30;;;;;;;1.00;0.90;;;;;;;10.73;32.73;100694.45;107384;1256;22534;-52
2023/12/24 11:16:01;;;;;;;0.70;0.70;;;;;;;10.74;32.81;100699.44;106467;1254;1003682;-53
2023/12/24 11:18:44;;;;;;;0.70;0.60;;;;;;;10.76;32.73;100698.70;106921;1250;25469;-53
2023/12/24 11:21:15;;;;;;;0.90;0.70;;;;;;;10.76;32.51;100696.60;106816;1257;25347;-53
2023/12/24 11:24:05;;;;;;;0.70;0.70;;;;;;;10.79;32.73;100701.58;105678;1257;1003429;-53